createdAt,value
2019-04-04T00:00:39.083Z,36.37
2019-04-04T00:05:46.197Z,32.17
2019-04-04T00:10:54.218Z,39.77
2019-04-04T00:16:00.311Z,30.53
2019-04-04T00:21:08.098Z,38.23
2019-04-04T00:26:16.098Z,40.07
2019-04-04T00:31:22.902Z,34.43
2019-04-04T00:36:33.755Z,38.47
2019-04-04T00:41:44.589Z,42.27
2019-04-04T00:46:50.137Z,36.63
2019-04-04T00:51:58.584Z,35.53
2019-04-04T00:57:05.585Z,41.67
2019-04-04T01:02:13.434Z,37.83
2019-04-04T01:07:22.840Z,39.33
2019-04-04T01:12:30.539Z,38.00
2019-04-04T01:17:39.376Z,35.23
2019-04-04T01:22:47.825Z,36.50
2019-04-04T01:27:56.452Z,34.97
2019-04-04T01:33:03.914Z,38.40
2019-04-04T01:38:10.974Z,40.43
2019-04-04T01:43:17.653Z,37.60
2019-04-04T01:48:27.260Z,50.17
2019-04-04T01:53:35.628Z,46.47
2019-04-04T01:58:45.305Z,49.80
2019-04-04T02:03:53.683Z,56.40
2019-04-04T02:09:02.961Z,55.83
2019-04-04T02:14:11.906Z,51.17
2019-04-04T02:19:19.679Z,45.50
2019-04-04T02:24:27.539Z,43.80
2019-04-04T02:29:34.836Z,39.83
2019-04-04T02:34:41.750Z,39.17
2019-04-04T02:39:50.353Z,37.47
2019-04-04T02:44:58.474Z,38.33
2019-04-04T02:50:06.511Z,39.57
2019-04-04T02:55:13.307Z,41.40
2019-04-04T03:00:20.800Z,41.67
2019-04-04T03:05:27.858Z,53.93
2019-04-04T03:10:34.996Z,53.23
2019-04-04T03:15:54.128Z,52.67
2019-04-04T03:21:02.617Z,56.73
2019-04-04T03:26:11.092Z,53.40
2019-04-04T03:31:18.252Z,51.10
2019-04-04T03:36:26.559Z,47.77
2019-04-04T03:41:35.799Z,39.93
2019-04-04T03:46:43.503Z,38.83
2019-04-04T03:51:50.006Z,36.90
2019-04-04T03:56:59.297Z,35.60
2019-04-04T04:02:06.360Z,34.17
2019-04-04T04:07:15.542Z,36.70
2019-04-04T04:12:22.457Z,36.00
2019-04-04T04:17:31.120Z,33.87
2019-04-04T04:22:40.469Z,37.57
2019-04-04T04:27:48.573Z,34.50
2019-04-04T04:32:57.502Z,37.37
2019-04-04T04:38:04.816Z,37.87
2019-04-04T04:43:15.483Z,40.33
2019-04-04T04:48:25.788Z,42.17
2019-04-04T04:53:32.760Z,39.10
2019-04-04T04:58:42.136Z,40.27
2019-04-04T05:03:50.949Z,43.67
2019-04-04T05:08:58.387Z,40.33
2019-04-04T05:14:04.563Z,48.70
2019-04-04T05:19:14.119Z,60.07
2019-04-04T05:24:21.828Z,51.93
2019-04-04T05:29:29.851Z,46.77
2019-04-04T05:34:37.496Z,50.13
2019-04-04T05:39:47.060Z,53.47
2019-04-04T05:44:55.966Z,61.50
2019-04-04T05:50:04.941Z,63.67
2019-04-04T05:55:12.380Z,70.47
2019-04-04T06:00:20.809Z,73.43
2019-04-04T06:05:27.912Z,67.60
2019-04-04T06:10:35.113Z,66.73
2019-04-04T06:15:42.246Z,67.60
2019-04-04T06:20:49.631Z,63.73
2019-04-04T06:25:55.910Z,59.10
2019-04-04T06:31:26.203Z,66.03
2019-04-04T06:36:31.939Z,67.00
2019-04-04T06:41:38.402Z,65.13
2019-04-04T06:46:47.587Z,57.63
2019-04-04T06:52:18.316Z,61.10
2019-04-04T06:57:25.811Z,55.60
2019-04-04T07:02:33.323Z,51.70
2019-04-04T07:07:43.162Z,51.47
2019-04-04T07:12:51.297Z,48.90
2019-04-04T07:17:57.395Z,50.53
2019-04-04T07:23:04.696Z,46.23
2019-04-04T07:28:13.727Z,52.33
2019-04-04T07:33:21.555Z,54.17
2019-04-04T07:38:31.304Z,51.80
2019-04-04T07:43:39.500Z,52.83
2019-04-04T07:48:46.514Z,49.40
2019-04-04T07:53:54.926Z,48.07
2019-04-04T07:59:02.888Z,46.10
2019-04-04T08:04:10.267Z,45.27
2019-04-04T08:09:19.117Z,40.03
2019-04-04T08:14:27.434Z,55.53
2019-04-04T08:19:33.624Z,49.70
2019-04-04T08:24:40.528Z,52.67
2019-04-04T08:29:48.686Z,54.63
2019-04-04T08:34:56.921Z,47.53
2019-04-04T08:40:05.317Z,54.10
2019-04-04T08:45:13.210Z,50.90
2019-04-04T08:50:22.579Z,47.17
2019-04-04T08:55:30.585Z,63.80
2019-04-04T09:00:38.903Z,50.50
2019-04-04T09:05:47.237Z,57.87
2019-04-04T09:10:55.444Z,52.43
2019-04-04T09:16:03.054Z,49.07
2019-04-04T09:21:10.903Z,42.27
2019-04-04T09:26:19.859Z,44.80
2019-04-04T09:31:27.782Z,50.67
2019-04-04T09:36:36.181Z,51.07
2019-04-04T09:41:43.869Z,45.47
2019-04-04T09:47:04.837Z,43.67
2019-04-04T09:52:02.153Z,39.73
2019-04-04T09:57:08.768Z,34.97
2019-04-04T10:02:17.703Z,14.10
2019-04-04T10:07:26.866Z,7.60
2019-04-04T10:12:35.668Z,8.33
2019-04-04T10:17:44.019Z,8.37
2019-04-04T10:22:50.918Z,8.53
2019-04-04T10:27:58.314Z,6.33
2019-04-04T10:33:05.507Z,8.43
2019-04-04T10:38:13.271Z,11.77
2019-04-04T10:43:21.117Z,7.00
2019-04-04T10:48:27.701Z,8.57
2019-04-04T10:53:36.290Z,8.13
2019-04-04T10:58:44.426Z,10.77
2019-04-04T11:03:52.739Z,8.83
2019-04-04T11:08:59.069Z,9.73
2019-04-04T11:14:07.566Z,9.73
2019-04-04T11:19:15.576Z,8.77
2019-04-04T11:24:23.623Z,8.53
2019-04-04T11:29:31.151Z,7.53
2019-04-04T11:34:52.352Z,10.27
2019-04-04T11:39:54.481Z,10.90
2019-04-04T11:44:57.080Z,9.47
2019-04-04T11:50:05.193Z,7.43
2019-04-04T11:55:12.313Z,13.67
2019-04-04T12:00:24.100Z,13.33
2019-04-04T12:05:31.922Z,11.67
2019-04-04T12:10:37.995Z,13.63
2019-04-04T12:15:44.538Z,9.53
2019-04-04T12:20:52.529Z,11.13
2019-04-04T12:26:01.218Z,11.40
2019-04-04T12:31:09.414Z,12.13
2019-04-04T12:36:24.423Z,10.77
2019-04-04T12:41:28.318Z,11.07
2019-04-04T12:46:34.645Z,9.57
2019-04-04T12:51:42.341Z,16.30
2019-04-04T12:56:50.070Z,15.13
2019-04-04T13:01:57.783Z,14.33
2019-04-04T13:07:07.729Z,17.73
2019-04-04T13:12:14.693Z,13.90
2019-04-04T13:17:22.973Z,15.60
2019-04-04T13:22:31.280Z,17.10
2019-04-04T13:27:39.940Z,13.07
2019-04-04T13:32:47.950Z,13.57
2019-04-04T13:37:56.270Z,14.00
2019-04-04T13:43:03.286Z,10.60
2019-04-04T13:48:12.796Z,13.77
2019-04-04T13:53:25.181Z,11.60
2019-04-04T13:58:29.479Z,11.17
2019-04-04T14:03:35.655Z,11.97
2019-04-04T14:08:45.705Z,15.77
2019-04-04T14:13:52.403Z,13.83
2019-04-04T14:18:58.472Z,12.27
2019-04-04T14:24:13.091Z,10.20
2019-04-04T14:29:26.686Z,11.73
2019-04-04T14:34:24.516Z,11.57
2019-04-04T14:39:32.386Z,11.87
2019-04-04T14:44:40.408Z,14.20
2019-04-04T14:49:49.550Z,10.33
2019-04-04T14:54:56.245Z,12.40
2019-04-04T15:00:05.422Z,13.13
2019-04-04T15:05:14.860Z,9.80
2019-04-04T15:10:23.136Z,8.57
2019-04-04T15:15:31.218Z,10.67
2019-04-04T15:20:40.134Z,9.47
2019-04-04T15:25:46.892Z,8.77
2019-04-04T15:30:55.657Z,11.10
2019-04-04T15:36:03.559Z,10.97
2019-04-04T15:41:12.955Z,14.10
2019-04-04T15:46:21.163Z,7.90
2019-04-04T15:51:29.118Z,13.50
2019-04-04T15:56:38.028Z,12.03
2019-04-04T16:01:46.431Z,9.40
2019-04-04T16:06:54.346Z,10.07
2019-04-04T16:12:00.430Z,9.60
2019-04-04T16:17:08.083Z,16.77
2019-04-04T16:22:16.266Z,8.93
2019-04-04T16:27:24.938Z,10.33
2019-04-04T16:32:33.691Z,10.33
2019-04-04T16:37:41.755Z,12.40
2019-04-04T16:42:52.207Z,13.30
2019-04-04T16:48:01.130Z,15.03
2019-04-04T16:53:08.377Z,11.73
2019-04-04T16:58:17.010Z,11.13
2019-04-04T17:03:26.156Z,13.23
2019-04-04T17:08:33.504Z,13.50
2019-04-04T17:13:41.707Z,15.07
2019-04-04T17:18:48.892Z,17.77
2019-04-04T17:23:56.806Z,15.17
2019-04-04T17:29:04.281Z,25.30
2019-04-04T17:34:14.772Z,18.77
2019-04-04T17:39:23.307Z,22.07
2019-04-04T17:44:30.108Z,16.20
2019-04-04T17:49:37.733Z,18.97
2019-04-04T17:54:48.731Z,15.57
2019-04-04T17:59:56.629Z,17.63
2019-04-04T18:05:03.913Z,21.60
2019-04-04T18:10:13.099Z,16.50
2019-04-04T18:15:21.377Z,17.03
2019-04-04T18:20:30.684Z,15.73
2019-04-04T18:25:39.170Z,16.90
2019-04-04T18:30:48.050Z,15.57
2019-04-04T18:35:56.811Z,21.77
2019-04-04T18:41:05.791Z,18.50
2019-04-04T18:46:14.454Z,21.83
2019-04-04T18:51:24.849Z,15.37
2019-04-04T18:56:32.851Z,20.73
2019-04-04T19:01:40.009Z,18.47
2019-04-04T19:06:48.637Z,19.70
2019-04-04T19:11:56.620Z,21.20
2019-04-04T19:17:05.622Z,18.77
2019-04-04T19:22:16.258Z,22.70
2019-04-04T19:27:24.456Z,20.43
2019-04-04T19:32:35.258Z,20.73
2019-04-04T19:37:42.237Z,21.97
2019-04-04T19:42:50.619Z,22.60
2019-04-04T19:47:58.016Z,23.07
2019-04-04T19:53:06.092Z,20.87
2019-04-04T19:58:14.510Z,18.00
2019-04-04T20:03:22.703Z,23.00
2019-04-04T20:08:31.051Z,20.10
2019-04-04T20:13:39.323Z,16.67
2019-04-04T20:18:47.416Z,20.43
2019-04-04T20:23:55.007Z,23.87
2019-04-04T20:29:02.518Z,19.43
2019-04-04T20:34:11.339Z,20.30
2019-04-04T20:39:21.511Z,20.57
2019-04-04T20:44:29.128Z,22.17
2019-04-04T20:49:36.874Z,29.17
2019-04-04T20:54:45.697Z,44.27
2019-04-04T20:59:53.513Z,60.87
2019-04-04T21:05:01.428Z,75.90
2019-04-04T21:10:11.679Z,74.30
2019-04-04T21:15:20.013Z,85.67
2019-04-04T21:20:26.693Z,92.33
2019-04-04T21:25:34.436Z,95.93
2019-04-04T21:30:41.408Z,108.53
2019-04-04T21:35:48.512Z,108.47
2019-04-04T21:40:56.314Z,115.30
2019-04-04T21:46:04.325Z,122.20
2019-04-04T21:51:11.031Z,135.53
2019-04-04T21:56:19.165Z,143.20
2019-04-04T22:01:27.808Z,133.87
2019-04-04T22:06:33.859Z,143.93
2019-04-04T22:11:39.937Z,139.13
2019-04-04T22:16:47.651Z,149.37
2019-04-04T22:21:54.341Z,148.37
2019-04-04T22:27:03.989Z,154.03
2019-04-04T22:32:12.137Z,153.80
2019-04-04T22:37:20.480Z,159.17
2019-04-04T22:42:27.592Z,153.17
2019-04-04T23:09:27.318Z,164.43
2019-04-04T23:14:46.943Z,170.43
2019-04-04T23:19:43.143Z,169.70
2019-04-04T23:24:50.130Z,174.77
2019-04-04T23:29:56.819Z,184.70
2019-04-04T23:35:03.499Z,182.30
2019-04-04T23:40:10.278Z,186.10
2019-04-04T23:45:16.828Z,179.63
2019-04-04T23:50:23.474Z,181.40
2019-04-04T23:55:29.899Z,184.37
